Data for 02/09/2010

Time Sea-Level Adjusted Pressure Absolute Pressure Temperature Relative Humidity Dew Point   
(mb) (inHg) (mb) (inHg) (C) (F) (%) (C) (F)
00:05 1016 30 846 24.98 -9.4 15 84 -11.6 11.1
00:10 1016 30 846 24.98 -9.4 15.1 85 -11.5 11.3
00:15 1016 30 846 24.98 -9.4 15 85 -11.5 11.3
00:20 1016 30 846 24.98 -9.4 15.1 85 -11.5 11.3
00:25 1016 30 846 24.98 -9.4 15.1 85 -11.5 11.3
00:30 1016 30 846 24.98 -9.5 15 85 -11.6 11.2
00:35 1016 30 846 24.98 -9.4 15 85 -11.5 11.3
00:40 1016 30 846 24.98 -9.4 15.1 85 -11.5 11.3
00:45 1016 30 846 24.98 -9.4 15.1 85 -11.5 11.4
00:50 1016 30 846 24.98 -9.4 15 85 -11.5 11.4
00:55 1016 30 846 24.98 -9.4 15.1 85 -11.4 11.5
01:00 1016 30 846 24.98 -9.3 15.2 85 -11.4 11.5
01:05 1016 30 846 24.98 -9.3 15.3 85 -11.4 11.5
01:10 1016 30 846 24.98 -9.2 15.4 85 -11.2 11.8
01:15 1016 30 846 24.98 -9.1 15.5 85 -11.2 11.8
01:20 1016 30 846 24.98 -9.2 15.5 85 -11.3 11.7
01:25 1016 30 846 24.98 -9.3 15.3 86 -11.3 11.7
01:30 1016 30 846 24.98 -9.2 15.4 85 -11.3 11.6
01:35 1016 30 846 24.98 -9.3 15.4 85 -11.4 11.5
01:40 1016 30 846 24.98 -9.3 15.3 85 -11.4 11.5
01:45 1016 30 846 24.98 -9.2 15.4 85 -11.3 11.6
01:50 1016 30 846 24.98 -9.2 15.5 85 -11.2 11.8
01:55 1016 30 845 24.95 -9.1 15.7 85 -11.1 12
02:00 1016 30 845 24.95 -9 15.9 86 -10.9 12.4
02:05 1016 30 845 24.95 -8.9 16.1 85 -11 12.3
02:10 1016 30 845 24.95 -8.9 15.9 84 -11.1 12
02:15 1016 30 846 24.98 -8.9 15.9 85 -11 12.2
02:20 1016 30 846 24.98 -8.9 16 85 -11 12.2
02:25 1016 30 846 24.98 -8.9 16.1 85 -10.9 12.4
02:30 1016 30 846 24.98 -8.8 16.2 86 -10.7 12.7
02:35 1016 30 845 24.95 -8.8 16.2 86 -10.7 12.7
02:40 1016 30 845 24.95 -8.9 15.9 86 -10.8 12.5
02:45 1016 30 845 24.95 -8.9 15.9 87 -10.7 12.7
02:50 1016 30 845 24.95 -8.8 16.1 86 -10.7 12.7
02:55 1016 30 845 24.95 -8.9 16 86 -10.8 12.6
03:00 1016 30 845 24.95 -9 15.9 87 -10.8 12.5
03:05 1016 30 845 24.95 -9.1 15.7 85 -11.2 11.9
03:10 1016 30 845 24.95 -9.2 15.5 86 -11.2 11.9
03:15 1016 30 845 24.95 -9.2 15.4 86 -11.1 12
03:20 1016 30 845 24.95 -9.2 15.4 86 -11.2 11.9
03:25 1016 30 845 24.95 -9.2 15.5 84 -11.4 11.5
03:30 1016 30 845 24.95 -9.3 15.2 85 -11.4 11.4
03:35 1016 30 845 24.95 -9.4 15 85 -11.4 11.4
03:40 1016 30 845 24.95 -9.4 15.1 85 -11.5 11.4
03:45 1016 30 845 24.95 -9.4 15.1 85 -11.5 11.4
03:50 1016 30 845 24.95 -9.3 15.2 84 -11.5 11.3
03:55 1016 30 845 24.95 -9.3 15.2 83 -11.7 11
04:00 1016 30 845 24.95 -9.4 15.2 82 -11.9 10.6
04:05 1016 30 845 24.95 -9.4 15.1 81 -12.1 10.3
04:10 1016 30 845 24.95 -9.5 15 84 -11.7 11
04:15 1016 30 845 24.95 -9.6 14.7 84 -11.7 10.9
04:20 1016 30 845 24.95 -9.5 15 85 -11.5 11.2
04:25 1016 30 845 24.95 -9.5 15 84 -11.7 11
04:30 1016 30 845 24.95 -9.4 15 86 -11.4 11.5
04:35 1016 30 845 24.95 -9.5 14.8 85 -11.6 11.1
04:40 1016 30 845 24.95 -9.7 14.6 85 -11.8 10.7
04:45 1016 30 845 24.95 -9.7 14.6 85 -11.8 10.8
04:50 1016 30 845 24.95 -9.7 14.6 85 -11.7 10.9
04:55 1016 30 845 24.95 -9.7 14.5 85 -11.8 10.8
05:00 1016 30 845 24.95 -9.8 14.3 86 -11.7 10.9
05:05 1016 30 845 24.95 -9.9 14.1 85 -12 10.5
05:10 1016 30 845 24.95 -10 14.1 86 -11.9 10.7
05:15 1016 30 845 24.95 -10 14 85 -12.1 10.2
05:20 1016 30 845 24.95 -10 14 86 -12 10.5
05:25 1016 30 845 24.95 -10.1 13.9 85 -12.1 10.3
05:30 1016 30 845 24.95 -10 14 86 -11.9 10.6
05:35 1016 30 845 24.95 -9.9 14.2 86 -11.8 10.8
05:40 1016 30 845 24.95 -10 14.1 86 -11.9 10.5
05:45 1016 30 845 24.95 -10.2 13.7 85 -12.3 9.9
05:50 1016 30 845 24.95 -10.3 13.4 86 -12.3 9.9
05:55 1016 30 845 24.95 -10.2 13.6 85 -12.2 10
06:00 1016 30 845 24.95 -10.3 13.6 85 -12.3 9.9
06:05 1016 30 845 24.95 -10.2 13.6 86 -12.2 10
06:10 1016 30 845 24.95 -10.3 13.4 86 -12.2 10
06:15 1016 30 845 24.95 -10.4 13.4 87 -12.1 10.1
06:20 1016 30 845 24.95 -10.3 13.5 88 -11.9 10.5
06:25 1016 30 845 24.95 -10.3 13.4 89 -11.9 10.7
06:30 1016 30 845 24.95 -10.3 13.6 88 -11.9 10.6
06:35 1016 30 846 24.98 -10.4 13.4 87 -12.1 10.3
06:40 1016 30 846 24.98 -10.5 13 88 -12.1 10.2
06:45 1016 30 846 24.98 -10.6 13 88 -12.2 10.1
06:50 1016 30 846 24.98 -10.6 12.9 89 -12.1 10.2
06:55 1016 30 846 24.98 -10.5 13.1 88 -12.2 10.1
07:00 1016 30 846 24.98 -10.5 13 88 -12.2 10.1
07:05 1016 30 846 24.98 -10.7 12.8 89 -12.2 10
07:10 1016 30 846 24.98 -10.7 12.8 87 -12.4 9.7
07:15 1016 30 846 24.98 -10.9 12.5 88 -12.5 9.5
07:20 1016 30 846 24.98 -10.8 12.6 88 -12.4 9.6
07:25 1016 30 846 24.98 -10.7 12.7 88 -12.4 9.7
07:30 1016 30 846 24.98 -10.7 12.8 88 -12.3 9.8
07:35 1016 30 846 24.98 -10.6 13 88 -12.2 10
07:40 1016 30 846 24.98 -10.5 13.2 87 -12.2 10
07:45 1016 30 846 24.98 -10.4 13.3 87 -12.1 10.2
07:50 1016 30 846 24.98 -10.3 13.5 87 -12.1 10.3
07:55 1016 30 846 24.98 -10.3 13.4 87 -12.1 10.3
08:00 1016 30 846 24.98 -10.4 13.3 87 -12.1 10.2
08:05 1016 30 846 24.98 -10.5 13.2 87 -12.2 10
08:10 1017 30.03 846 24.98 -10.5 13.2 87 -12.2 10.1
08:15 1017 30.03 846 24.98 -10.4 13.2 87 -12.2 10.1
08:20 1017 30.03 846 24.98 -10.4 13.3 88 -12.1 10.2
08:25 1017 30.03 846 24.98 -10.2 13.6 88 -11.9 10.5
08:30 1017 30.03 846 24.98 -10.1 13.8 87 -12 10.5
08:35 1017 30.03 846 24.98 -10.1 13.9 86 -12 10.4
08:40 1017 30.03 846 24.98 -10.2 13.7 86 -12 10.3
08:45 1017 30.03 846 24.98 -10.2 13.6 87 -12.1 10.3
08:50 1017 30.03 846 24.98 -10.3 13.4 88 -11.9 10.5
08:55 1017 30.03 846 24.98 -10.1 13.9 87 -11.8 10.8
09:00 1017 30.03 846 24.98 -9.8 14.5 87 -11.5 11.2
09:05 1017 30.03 846 24.98 -9.5 14.9 85 -11.6 11.2
09:10 1017 30.03 846 24.98 -9.7 14.5 85 -11.9 10.6
09:15 1017 30.03 846 24.98 -9.6 14.7 85 -11.8 10.8
09:20 1017 30.03 846 24.98 -9.7 14.6 85 -11.8 10.8
09:25 1017 30.03 846 24.98 -9.6 14.7 85 -11.6 11.1
09:30 1017 30.03 846 24.98 -9.5 14.9 85 -11.6 11.2
09:35 1017 30.03 846 24.98 -9.7 14.6 86 -11.6 11.2
09:40 1017 30.03 846 24.98 -9.6 14.8 85 -11.7 11
09:45 1017 30.03 846 24.98 -9.4 15 85 -11.6 11.2
09:50 1017 30.03 846 24.98 -9.2 15.4 84 -11.5 11.3
09:55 1017 30.03 846 24.98 -9.4 15.1 86 -11.3 11.6
10:00 1017 30.03 846 24.98 -9.2 15.5 84 -11.4 11.5
10:05 1017 30.03 846 24.98 -9 15.9 83 -11.3 11.7
10:10 1017 30.03 846 24.98 -9 15.8 84 -11.2 11.8
10:15 1017 30.03 846 24.98 -8.8 16.2 83 -11.1 12
10:20 1017 30.03 846 24.98 -8.7 16.3 81 -11.3 11.6
10:25 1017 30.03 846 24.98 -8.5 16.7 80 -11.4 11.6
10:30 1017 30.03 846 24.98 -8.3 17 80 -11.2 11.9
10:35 1017 30.03 846 24.98 -7.9 17.8 77 -11.3 11.7
10:40 1017 30.03 846 24.98 -8.5 16.8 79 -11.5 11.3
10:45 1017 30.03 846 24.98 -8.6 16.6 80 -11.4 11.5
10:50 1017 30.03 846 24.98 -9 15.8 83 -11.4 11.5
10:55 1017 30.03 846 24.98 -9.5 15 85 -11.6 11.1
11:00 1017 30.03 846 24.98 -9.1 15.6 83 -11.5 11.3
11:05 1017 30.03 846 24.98 -8.8 16.2 81 -11.4 11.4
11:10 1017 30.03 846 24.98 -8.5 16.7 80 -11.3 11.6
11:15 1017 30.03 846 24.98 -7.5 18.5 74 -11.4 11.5
11:20 1017 30.03 846 24.98 -7.2 19 76 -10.8 12.6
11:25 1017 30.03 846 24.98 -7.3 18.9 75 -11 12.1
11:30 1017 30.03 846 24.98 -7.3 19 77 -10.7 12.7
11:35 1017 30.03 846 24.98 -7 19.3 74 -10.9 12.4
11:40 1017 30.03 846 24.98 -6.3 20.7 71 -10.6 12.9
11:45 1017 30.03 846 24.98 -5.7 21.8 69 -10.6 13
11:50 1017 30.03 846 24.98 -5.1 22.8 66 -10.5 13.1
11:55 1017 30.03 846 24.98 -5 23 66 -10.4 13.4
12:00 1017 30.03 846 24.98 -4.6 23.7 64 -10.4 13.2
12:05 1016 30 846 24.98 -4.7 23.5 64 -10.5 13.2
12:10 1016 30 846 24.98 -5.1 22.8 70 -9.8 14.4
12:15 1016 30 846 24.98 -5.3 22.4 69 -10.1 13.8
12:20 1016 30 846 24.98 -5 23 68 -10.1 13.8
12:25 1016 30 846 24.98 -4.7 23.6 66 -10 14
12:30 1016 30 845 24.95 -4.8 23.3 66 -10.2 13.6
12:35 1016 30 845 24.95 -4.2 24.4 64 -10.1 13.9
12:40 1016 30 845 24.95 -4.2 24.4 66 -9.8 14.4
12:45 1016 30 845 24.95 -4.4 24 65 -10 13.9
12:50 1016 30 845 24.95 -3.7 25.3 60 -10.4 13.2
12:55 1016 30 845 24.95 -4.1 24.6 65 -9.7 14.5
13:00 1016 30 845 24.95 -5.5 22.1 71 -10 14
13:05 1016 30 845 24.95 -5.2 22.6 69 -10.1 13.8
13:10 1016 30 845 24.95 -5.4 22.3 70 -10 14
13:15 1016 30 845 24.95 -5.5 22 70 -10.2 13.7
13:20 1016 30 845 24.95 -6.3 20.8 70 -10.8 12.6
13:25 1016 30 845 24.95 -5.9 21.3 71 -10.3 13.5
13:30 1016 30 845 24.95 -6.4 20.6 72 -10.5 13
13:35 1016 30 845 24.95 -5.7 21.8 68 -10.7 12.7
13:40 1016 30 845 24.95 -4.9 23.1 66 -10.3 13.5
13:45 1016 30 845 24.95 -5.3 22.5 67 -10.4 13.2
13:50 1015 29.97 845 24.95 -4.8 23.4 65 -10.5 13.1
13:55 1015 29.97 845 24.95 -5.1 22.9 64 -10.8 12.6
14:00 1015 29.97 845 24.95 -4.7 23.5 62 -10.9 12.4
14:05 1015 29.97 845 24.95 -4.2 24.4 60 -10.9 12.4
14:10 1015 29.97 845 24.95 -4.7 23.5 64 -10.5 13
14:15 1015 29.97 845 24.95 -4.5 23.9 63 -10.5 13.2
14:20 1015 29.97 845 24.95 -3.8 25.2 62 -10 13.9
14:25 1015 29.97 845 24.95 -2.9 26.7 55 -10.6 12.8
14:30 1015 29.97 845 24.95 -2.6 27.4 55 -10.5 13.1
14:35 1015 29.97 844 24.92 -2.6 27.3 56 -10.2 13.6
14:40 1015 29.97 844 24.92 -2.3 27.9 54 -10.3 13.5
14:45 1015 29.97 844 24.92 -2.5 27.5 53 -10.7 12.7
14:50 1015 29.97 844 24.92 -2.8 26.9 54 -10.9 12.3
14:55 1015 29.97 844 24.92 -3.2 26.2 56 -10.8 12.5
15:00 1015 29.97 844 24.92 -3.7 25.3 61 -10.2 13.6
15:05 1015 29.97 844 24.92 -4.6 23.8 63 -10.5 13
15:10 1015 29.97 844 24.92 -4.2 24.5 60 -10.9 12.5
15:15 1015 29.97 844 24.92 -4.2 24.4 61 -10.7 12.7
15:20 1015 29.97 844 24.92 -4.6 23.7 63 -10.6 12.9
15:25 1015 29.97 844 24.92 -4.8 23.3 62 -11 12.2
15:30 1015 29.97 844 24.92 -4.3 24.3 61 -10.8 12.6
15:35 1015 29.97 844 24.92 -4.7 23.5 62 -10.9 12.3
15:40 1015 29.97 844 24.92 -4 24.8 58 -11.1 12
15:45 1015 29.97 844 24.92 -3.9 25 58 -11 12.2
15:50 1015 29.97 844 24.92 -4.2 24.4 60 -10.9 12.3
15:55 1015 29.97 844 24.92 -4.3 24.3 60 -10.8 12.5
16:00 1015 29.97 844 24.92 -4.7 23.6 60 -11.3 11.7
16:05 1015 29.97 844 24.92 -4.9 23.3 61 -11.3 11.6
16:10 1015 29.97 844 24.92 -5 23 61 -11.4 11.6
16:15 1015 29.97 844 24.92 -4.9 23.2 60 -11.4 11.4
16:20 1015 29.97 844 24.92 -4.9 23.1 60 -11.6 11.2
16:25 1015 29.97 844 24.92 -4.1 24.6 56 -11.7 10.9
16:30 1015 29.97 844 24.92 -4.1 24.6 58 -11.1 11.9
16:35 1015 29.97 844 24.92 -4.7 23.6 60 -11.4 11.5
16:40 1015 29.97 844 24.92 -4.6 23.8 58 -11.7 10.9
16:45 1015 29.97 844 24.92 -4.3 24.3 57 -11.6 11.1
16:50 1015 29.97 844 24.92 -4.3 24.2 60 -11.1 12.1
16:55 1015 29.97 844 24.92 -3.6 25.5 57 -11 12.2
17:00 1015 29.97 844 24.92 -3.3 26.1 55 -11.2 11.9
17:05 1015 29.97 844 24.92 -3.3 26.1 55 -11.1 12
17:10 1015 29.97 844 24.92 -2.9 26.8 53 -11.1 11.9
17:15 1015 29.97 844 24.92 -2.7 27.1 53 -11 12.2
17:20 1015 29.97 844 24.92 -2.8 27 53 -11.1 12.1
17:25 1015 29.97 844 24.92 -2.9 26.7 54 -11 12.2
17:30 1015 29.97 844 24.92 -3.3 26.1 56 -11 12.3
17:35 1015 29.97 844 24.92 -3.7 25.4 58 -10.8 12.6
17:40 1015 29.97 844 24.92 -4.3 24.3 62 -10.5 13.2
17:45 1015 29.97 844 24.92 -4.7 23.5 63 -10.7 12.7
17:50 1015 29.97 844 24.92 -4.7 23.5 63 -10.8 12.5
17:55 1014 29.94 844 24.92 -4.9 23.2 65 -10.4 13.2
18:00 1015 29.97 844 24.92 -5.1 22.8 65 -10.7 12.7
18:05 1015 29.97 844 24.92 -5.4 22.3 67 -10.6 12.9
18:10 1014 29.94 844 24.92 -5.7 21.7 68 -10.7 12.7
18:15 1015 29.97 844 24.92 -6.3 20.7 70 -10.8 12.5
18:20 1015 29.97 844 24.92 -6.1 21 69 -10.9 12.3
18:25 1015 29.97 844 24.92 -6.1 21.1 68 -11 12.1
18:30 1015 29.97 844 24.92 -6.2 20.8 70 -10.8 12.5
18:35 1015 29.97 844 24.92 -6.4 20.5 70 -10.9 12.3
18:40 1014 29.94 844 24.92 -6.5 20.3 71 -11 12.2
18:45 1014 29.94 844 24.92 -6.7 20 72 -10.9 12.5
18:50 1015 29.97 844 24.92 -7 19.4 73 -11 12.1
18:55 1015 29.97 844 24.92 -6.9 19.5 72 -11.2 11.9
19:00 1015 29.97 844 24.92 -6.7 19.9 72 -11 12.1
19:05 1015 29.97 844 24.92 -7 19.5 72 -11.2 11.9
19:10 1015 29.97 844 24.92 -7.2 19 73 -11.2 11.8
19:15 1015 29.97 844 24.92 -7.6 18.4 74 -11.5 11.2
19:20 1015 29.97 844 24.92 -8.2 17.3 76 -11.7 10.9
19:25 1015 29.97 844 24.92 -8.4 16.9 76 -11.9 10.5
19:30 1015 29.97 844 24.92 -8.5 16.8 76 -11.9 10.5
19:35 1015 29.97 844 24.92 -8.5 16.8 77 -11.8 10.8
19:40 1015 29.97 844 24.92 -8.2 17.2 76 -11.7 10.9
19:45 1015 29.97 844 24.92 -8.3 17.1 76 -11.7 10.9
19:50 1014 29.94 844 24.92 -8.4 16.8 77 -11.8 10.8
19:55 1014 29.94 844 24.92 -8.6 16.5 78 -11.8 10.7
20:00 1014 29.94 844 24.92 -8.7 16.4 78 -11.9 10.6
20:05 1014 29.94 844 24.92 -8.6 16.5 78 -11.8 10.8
20:10 1014 29.94 844 24.92 -8.7 16.3 79 -11.7 10.9
20:15 1015 29.97 844 24.92 -8.8 16.2 79 -11.7 10.9
20:20 1015 29.97 844 24.92 -8.7 16.4 79 -11.7 10.9
20:25 1014 29.94 844 24.92 -8.5 16.7 78 -11.7 10.9
20:30 1014 29.94 844 24.92 -8.6 16.6 78 -11.8 10.7
20:35 1014 29.94 844 24.92 -8.6 16.5 78 -11.9 10.7
20:40 1014 29.94 844 24.92 -8.6 16.6 77 -11.9 10.6
20:45 1014 29.94 844 24.92 -8.8 16.1 78 -12 10.4
20:50 1014 29.94 844 24.92 -9 15.8 79 -12 10.4
20:55 1014 29.94 844 24.92 -8.8 16.1 78 -11.9 10.5
21:00 1015 29.97 844 24.92 -8.8 16.1 79 -11.8 10.7
21:05 1015 29.97 844 24.92 -9 15.9 79 -12.1 10.3
21:10 1015 29.97 844 24.92 -9.2 15.5 79 -12.2 10.1
21:15 1015 29.97 844 24.92 -9.2 15.4 80 -12 10.4
21:20 1015 29.97 844 24.92 -9 15.7 79 -12 10.4
21:25 1015 29.97 844 24.92 -8.9 16 79 -11.9 10.5
21:30 1015 29.97 844 24.92 -9 15.7 80 -11.9 10.5
21:35 1015 29.97 844 24.92 -9.1 15.7 80 -12 10.5
21:40 1015 29.97 844 24.92 -8.5 16.8 75 -12.2 10.1
21:45 1015 29.97 844 24.92 -8.3 17 72 -12.5 9.5
21:50 1015 29.97 844 24.92 -8.3 17 72 -12.5 9.5
21:55 1015 29.97 844 24.92 -8.4 16.9 72 -12.6 9.3
22:00 1015 29.97 844 24.92 -8.6 16.5 73 -12.7 9.2
22:05 1015 29.97 844 24.92 -9.1 15.5 76 -12.7 9.1
22:10 1015 29.97 844 24.92 -9.4 15 76 -13 8.7
22:15 1015 29.97 844 24.92 -8.9 16 75 -12.7 9.2
22:20 1015 29.97 844 24.92 -8.9 16.1 75 -12.5 9.4
22:25 1015 29.97 844 24.92 -8.9 16 76 -12.3 9.8
22:30 1015 29.97 844 24.92 -8.9 15.9 77 -12.3 9.9
22:35 1015 29.97 844 24.92 -9.1 15.6 77 -12.4 9.7
22:40 1015 29.97 844 24.92 -9 15.7 77 -12.3 9.8
22:45 1015 29.97 844 24.92 -9.1 15.7 77 -12.4 9.7
22:50 1015 29.97 844 24.92 -8.8 16.1 76 -12.3 9.9
22:55 1015 29.97 844 24.92 -8.5 16.7 75 -12.1 10.2
23:00 1015 29.97 844 24.92 -8.2 17.3 74 -12 10.4
23:05 1015 29.97 844 24.92 -8.1 17.5 74 -12 10.5
23:10 1015 29.97 844 24.92 -7.6 18.4 70 -12.1 10.3
23:15 1015 29.97 844 24.92 -8.1 17.5 75 -11.7 10.9
23:20 1015 29.97 844 24.92 -8.7 16.3 78 -11.9 10.7
23:25 1015 29.97 844 24.92 -8.8 16.2 79 -11.8 10.8
23:30 1015 29.97 844 24.92 -8.5 16.8 77 -11.8 10.8
23:35 1015 29.97 844 24.92 -8.3 17.1 77 -11.6 11.2
23:40 1015 29.97 844 24.92 -8.3 17.1 77 -11.7 11
23:45 1015 29.97 844 24.92 -8.1 17.4 76 -11.7 11
23:50 1015 29.97 844 24.92 -7.9 17.8 75 -11.6 11.1
23:55 1015 29.97 844 24.92 -7.8 17.9 75 -11.6 11.2
24:00 1015 29.97 844 24.92 -7.8 18 75 -11.4 11.4